createdAt,value
2022-12-25T00:01:12.820Z,3.10
2022-12-25T00:03:40.258Z,4.40
2022-12-25T00:06:07.421Z,2.90
2022-12-25T00:08:35.290Z,2.90
2022-12-25T00:11:08.272Z,3.00
2022-12-25T00:13:35.202Z,3.10
2022-12-25T00:16:07.080Z,3.00
2022-12-25T00:18:33.985Z,3.00
2022-12-25T00:21:04.021Z,3.00
2022-12-25T00:23:31.325Z,2.90
2022-12-25T00:25:58.215Z,2.90
2022-12-25T00:28:25.776Z,3.00
2022-12-25T00:30:52.748Z,3.00
2022-12-25T00:33:19.692Z,3.00
2022-12-25T00:36:00.117Z,3.10
2022-12-25T00:38:27.635Z,2.90
2022-12-25T00:40:55.022Z,3.00
2022-12-25T00:43:22.534Z,2.90
2022-12-25T00:46:00.556Z,2.90
2022-12-25T00:48:28.523Z,3.00
2022-12-25T00:51:01.112Z,2.90
2022-12-25T00:53:29.006Z,2.90
2022-12-25T00:56:02.065Z,2.90
2022-12-25T00:58:29.964Z,2.90
2022-12-25T01:00:57.609Z,2.90
2022-12-25T01:03:25.684Z,3.00
2022-12-25T01:05:58.247Z,3.10
2022-12-25T01:08:25.317Z,3.00
2022-12-25T01:11:01.362Z,3.00
2022-12-25T01:13:30.126Z,3.00
2022-12-25T01:15:57.166Z,3.00
2022-12-25T01:18:25.352Z,3.00
2022-12-25T01:20:52.194Z,2.90
2022-12-25T01:23:19.115Z,3.10
2022-12-25T01:25:45.983Z,3.00
2022-12-25T01:28:12.835Z,3.00
2022-12-25T01:30:39.944Z,2.90
2022-12-25T01:33:06.821Z,2.90
2022-12-25T01:35:33.626Z,3.00
2022-12-25T01:38:00.523Z,3.00
2022-12-25T01:40:27.415Z,3.00
2022-12-25T01:42:54.338Z,3.00
2022-12-25T01:45:43.829Z,3.00
2022-12-25T01:48:15.979Z,2.90
2022-12-25T01:50:48.141Z,2.90
2022-12-25T01:53:15.221Z,2.80
2022-12-25T01:55:44.233Z,2.80
2022-12-25T01:58:11.453Z,2.80
2022-12-25T02:00:38.342Z,2.80
2022-12-25T02:03:05.426Z,2.80
2022-12-25T02:05:34.431Z,2.90
2022-12-25T02:08:12.182Z,2.80
2022-12-25T02:10:39.264Z,3.00
2022-12-25T02:13:07.562Z,3.10
2022-12-25T02:15:54.636Z,4.10
2022-12-25T02:18:43.863Z,3.00
2022-12-25T02:21:37.646Z,3.00
2022-12-25T02:24:13.484Z,2.90
2022-12-25T02:26:59.883Z,3.00
2022-12-25T02:29:48.106Z,2.90
2022-12-25T02:32:21.032Z,3.00
2022-12-25T02:34:54.724Z,3.00
2022-12-25T02:37:30.319Z,2.90
2022-12-25T02:40:09.744Z,3.00
2022-12-25T02:43:13.358Z,2.90
2022-12-25T02:46:10.472Z,2.70
2022-12-25T02:49:04.238Z,3.40
2022-12-25T02:51:54.711Z,2.70
2022-12-25T02:54:47.729Z,2.70
2022-12-25T02:57:35.942Z,2.70
2022-12-25T03:00:23.311Z,2.60
2022-12-25T03:03:10.194Z,2.80
2022-12-25T03:05:59.217Z,2.90
2022-12-25T03:08:34.854Z,3.00
2022-12-25T03:11:28.861Z,2.80
2022-12-25T03:14:18.109Z,2.80
2022-12-25T03:16:53.667Z,2.80
2022-12-25T03:19:43.385Z,2.90
2022-12-25T03:22:36.101Z,3.10
2022-12-25T03:25:22.073Z,2.90
2022-12-25T03:27:52.810Z,3.10
2022-12-25T03:30:38.918Z,3.10
2022-12-25T03:33:36.694Z,3.10
2022-12-25T03:36:28.287Z,3.10
2022-12-25T03:39:29.470Z,3.00
2022-12-25T03:42:19.538Z,2.80
2022-12-25T03:45:27.913Z,3.00
2022-12-25T03:48:14.915Z,3.10
2022-12-25T03:51:09.567Z,3.00
2022-12-25T03:54:05.110Z,2.90
2022-12-25T03:56:51.946Z,2.90
2022-12-25T03:59:39.974Z,2.80
2022-12-25T04:02:25.646Z,2.80
2022-12-25T04:05:10.881Z,2.80
2022-12-25T04:07:56.582Z,2.90
2022-12-25T04:10:42.435Z,3.00
2022-12-25T04:13:27.709Z,3.00
2022-12-25T04:16:13.933Z,3.20
2022-12-25T04:18:59.410Z,2.80
2022-12-25T04:21:44.804Z,2.90
2022-12-25T04:24:30.956Z,3.00
2022-12-25T04:27:16.084Z,2.20
2022-12-25T04:30:01.815Z,3.00
2022-12-25T04:32:47.225Z,3.00
2022-12-25T04:35:32.827Z,3.10
2022-12-25T04:37:59.640Z,3.00
2022-12-25T04:40:26.491Z,3.00
2022-12-25T04:42:53.546Z,3.10
2022-12-25T04:45:20.447Z,3.20
2022-12-25T04:47:47.264Z,3.90
2022-12-25T04:50:14.127Z,3.20
2022-12-25T04:52:41.568Z,3.20
2022-12-25T04:55:10.238Z,3.30
2022-12-25T04:57:37.846Z,3.10
2022-12-25T05:00:06.110Z,3.20
2022-12-25T05:05:00.797Z,3.00
2022-12-25T05:07:27.721Z,2.70
2022-12-25T05:09:54.508Z,2.90
2022-12-25T05:12:21.358Z,3.00
2022-12-25T05:14:48.179Z,3.00
2022-12-25T05:17:15.111Z,2.90
2022-12-25T05:19:42.943Z,3.00
2022-12-25T05:22:09.858Z,3.10
2022-12-25T05:24:36.679Z,2.90
2022-12-25T05:27:03.606Z,2.80
2022-12-25T05:29:30.518Z,2.80
2022-12-25T05:31:57.373Z,2.70
2022-12-25T05:34:24.235Z,2.60
2022-12-25T05:36:51.032Z,1.40
2022-12-25T05:39:17.942Z,2.50
2022-12-25T05:41:45.107Z,2.40
2022-12-25T05:44:11.981Z,2.40
2022-12-25T05:46:38.845Z,2.50
2022-12-25T05:49:06.077Z,2.50
2022-12-25T05:51:33.233Z,2.50
2022-12-25T05:54:00.433Z,2.60
2022-12-25T05:56:27.291Z,2.50
2022-12-25T05:58:54.409Z,2.70
2022-12-25T06:01:24.719Z,2.60
2022-12-25T06:03:51.815Z,2.50
2022-12-25T06:06:19.468Z,2.70
2022-12-25T06:08:46.362Z,2.50
2022-12-25T06:11:14.979Z,2.60
2022-12-25T06:13:42.039Z,2.60
2022-12-25T06:16:10.893Z,2.60
2022-12-25T06:18:40.206Z,2.50
2022-12-25T06:21:08.693Z,2.50
2022-12-25T06:23:36.279Z,2.60
2022-12-25T06:26:05.792Z,2.80
2022-12-25T06:28:32.567Z,2.70
2022-12-25T06:30:59.450Z,2.60
2022-12-25T06:33:26.284Z,2.60
2022-12-25T06:35:53.080Z,2.70
2022-12-25T06:38:19.887Z,2.70
2022-12-25T06:40:46.743Z,2.70
2022-12-25T06:43:13.588Z,2.60
2022-12-25T06:45:40.412Z,2.60
2022-12-25T06:48:07.300Z,2.80
2022-12-25T06:50:34.098Z,2.80
2022-12-25T06:53:00.899Z,2.80
2022-12-25T06:55:27.743Z,2.70
2022-12-25T06:57:54.561Z,2.70
2022-12-25T07:00:21.465Z,2.70
2022-12-25T07:02:50.099Z,2.70
2022-12-25T07:05:17.131Z,2.70
2022-12-25T07:07:43.973Z,2.70
2022-12-25T07:10:11.145Z,2.80
2022-12-25T07:12:38.042Z,2.80
2022-12-25T07:15:05.292Z,2.80
2022-12-25T07:17:34.623Z,2.80
2022-12-25T07:20:01.527Z,2.80
2022-12-25T07:22:30.196Z,2.90
2022-12-25T07:24:57.415Z,2.80
2022-12-25T07:27:24.285Z,2.80
2022-12-25T07:29:51.080Z,2.90
2022-12-25T07:32:17.948Z,2.90
2022-12-25T07:34:44.767Z,2.90
2022-12-25T07:37:11.707Z,2.90
2022-12-25T07:39:38.606Z,2.90
2022-12-25T07:42:06.855Z,2.90
2022-12-25T07:44:33.751Z,2.90
2022-12-25T07:47:00.651Z,3.10
2022-12-25T07:49:27.514Z,3.00
2022-12-25T07:51:54.309Z,3.90
2022-12-25T07:54:21.587Z,3.10
2022-12-25T07:56:52.463Z,5.00
2022-12-25T07:59:19.855Z,3.20
2022-12-25T08:01:47.026Z,3.20
2022-12-25T08:04:14.027Z,3.10
2022-12-25T08:06:40.843Z,3.20
2022-12-25T08:09:10.556Z,3.30
2022-12-25T08:11:38.153Z,3.40
2022-12-25T08:14:09.252Z,3.60
2022-12-25T08:16:39.916Z,3.60
2022-12-25T08:19:07.357Z,3.50
2022-12-25T08:21:34.216Z,3.50
2022-12-25T08:24:02.701Z,3.50
2022-12-25T08:26:29.901Z,3.60
2022-12-25T08:28:56.777Z,3.70
2022-12-25T08:31:26.308Z,3.60
2022-12-25T08:33:55.874Z,3.60
2022-12-25T08:36:23.502Z,3.50
2022-12-25T08:38:51.198Z,3.50
2022-12-25T08:41:18.298Z,3.50
2022-12-25T08:43:45.827Z,3.50
2022-12-25T08:46:13.461Z,3.60
2022-12-25T08:48:45.177Z,3.60
2022-12-25T08:51:21.339Z,3.60
2022-12-25T08:53:50.149Z,3.70
2022-12-25T08:56:18.399Z,3.80
2022-12-25T08:58:45.996Z,3.70
2022-12-25T09:01:13.685Z,3.50
2022-12-25T09:03:41.498Z,3.50
2022-12-25T09:06:10.998Z,3.60
2022-12-25T09:08:44.028Z,3.60
2022-12-25T09:11:15.817Z,3.60
2022-12-25T09:13:42.685Z,3.60
2022-12-25T09:16:12.605Z,3.60
2022-12-25T09:21:09.943Z,3.60
2022-12-25T09:23:36.789Z,3.70
2022-12-25T09:26:05.830Z,3.60
2022-12-25T09:28:33.013Z,3.70
2022-12-25T09:30:59.933Z,3.60
2022-12-25T09:33:27.288Z,3.60
2022-12-25T09:36:12.161Z,3.70
2022-12-25T09:38:39.090Z,3.70
2022-12-25T09:41:06.207Z,3.70
2022-12-25T09:43:39.324Z,3.80
2022-12-25T09:46:07.792Z,3.80
2022-12-25T09:48:40.207Z,4.00
2022-12-25T09:51:13.229Z,3.90
2022-12-25T09:53:43.385Z,3.90
2022-12-25T09:56:17.841Z,3.80
2022-12-25T09:58:45.437Z,3.90
2022-12-25T10:01:29.038Z,3.90
2022-12-25T10:04:39.104Z,4.00
2022-12-25T10:07:26.833Z,4.00
2022-12-25T10:10:11.448Z,4.00
2022-12-25T10:12:58.472Z,4.00
2022-12-25T10:15:46.628Z,4.00
2022-12-25T10:18:32.077Z,4.00
2022-12-25T10:21:01.386Z,4.00
2022-12-25T10:23:32.608Z,4.10
2022-12-25T10:25:59.466Z,4.00
2022-12-25T10:28:44.033Z,4.10
2022-12-25T10:31:20.251Z,4.10
2022-12-25T10:33:48.895Z,4.20
2022-12-25T10:36:20.380Z,4.10
2022-12-25T10:38:48.203Z,4.10
2022-12-25T10:41:55.797Z,4.20
2022-12-25T10:44:26.499Z,4.20
2022-12-25T10:46:59.566Z,4.20
2022-12-25T10:49:30.631Z,4.20
2022-12-25T10:51:57.498Z,4.20
2022-12-25T10:54:31.496Z,4.30
2022-12-25T10:57:04.307Z,4.50
2022-12-25T10:59:36.300Z,4.50
2022-12-25T11:02:20.428Z,4.50
2022-12-25T11:04:48.689Z,4.40
2022-12-25T11:07:24.373Z,4.40
2022-12-25T11:10:02.602Z,4.40
2022-12-25T11:12:37.798Z,4.40
2022-12-25T11:15:26.723Z,4.50
2022-12-25T11:17:53.564Z,4.50
2022-12-25T11:20:21.422Z,4.40
2022-12-25T11:22:50.213Z,4.50
2022-12-25T11:25:25.919Z,4.50
2022-12-25T11:28:07.250Z,4.40
2022-12-25T11:30:35.882Z,4.50
2022-12-25T11:33:11.198Z,4.60
2022-12-25T11:35:47.796Z,4.60
2022-12-25T11:38:14.721Z,4.60
2022-12-25T11:40:47.286Z,4.70
2022-12-25T11:43:25.576Z,4.70
2022-12-25T11:45:59.071Z,4.70
2022-12-25T11:48:34.026Z,4.80
2022-12-25T11:51:03.545Z,4.90
2022-12-25T11:53:39.718Z,5.10
2022-12-25T11:56:08.344Z,5.20
2022-12-25T11:58:43.955Z,5.90
2022-12-25T12:01:29.383Z,6.70
2022-12-25T12:03:58.136Z,7.80
2022-12-25T12:06:48.205Z,8.30
2022-12-25T12:09:56.862Z,8.00
2022-12-25T12:12:41.726Z,7.60
2022-12-25T12:15:28.391Z,7.50
2022-12-25T12:17:55.972Z,7.20
2022-12-25T12:20:28.760Z,7.00
2022-12-25T12:22:56.208Z,7.40
2022-12-25T12:25:23.494Z,7.40
2022-12-25T12:28:04.857Z,6.90
2022-12-25T12:30:35.683Z,6.70
2022-12-25T12:33:06.177Z,6.50
2022-12-25T12:35:36.725Z,6.20
2022-12-25T12:38:05.828Z,6.00
2022-12-25T12:40:39.513Z,5.90
2022-12-25T12:43:22.208Z,5.70
2022-12-25T12:46:13.287Z,5.60
2022-12-25T12:48:43.472Z,5.50
2022-12-25T12:51:27.124Z,5.40
2022-12-25T12:54:20.233Z,5.30
2022-12-25T12:57:00.816Z,5.30
2022-12-25T12:59:44.425Z,5.20
2022-12-25T13:02:20.058Z,5.20
2022-12-25T13:05:04.786Z,5.20
2022-12-25T13:07:45.028Z,5.10
2022-12-25T13:10:34.344Z,5.10
2022-12-25T13:13:10.741Z,5.00
2022-12-25T13:15:39.077Z,5.00
2022-12-25T13:18:10.176Z,5.00
2022-12-25T13:20:49.720Z,5.00
2022-12-25T13:23:32.675Z,5.00
2022-12-25T13:26:21.478Z,5.00
2022-12-25T13:28:48.295Z,4.90
2022-12-25T13:31:21.024Z,5.00
2022-12-25T13:33:53.084Z,4.90
2022-12-25T13:36:20.035Z,4.90
2022-12-25T13:38:49.941Z,4.90
2022-12-25T13:41:38.993Z,4.90
2022-12-25T13:44:27.019Z,5.10
2022-12-25T13:46:53.901Z,5.00
2022-12-25T13:49:22.856Z,5.00
2022-12-25T13:51:50.653Z,4.90
2022-12-25T13:54:19.628Z,5.00
2022-12-25T13:56:55.433Z,5.00
2022-12-25T13:59:24.895Z,5.10
2022-12-25T14:01:54.014Z,5.00
2022-12-25T14:04:23.379Z,5.00
2022-12-25T14:06:51.699Z,4.90
2022-12-25T14:09:19.329Z,4.90
2022-12-25T14:11:50.436Z,4.80
2022-12-25T14:14:24.076Z,4.90
2022-12-25T14:16:53.545Z,4.80
2022-12-25T14:19:31.771Z,4.80
2022-12-25T14:22:06.162Z,4.80
2022-12-25T14:24:34.587Z,4.70
2022-12-25T14:27:04.643Z,4.80
2022-12-25T14:29:37.681Z,4.80
2022-12-25T14:32:23.657Z,4.70
2022-12-25T14:34:55.729Z,4.70
2022-12-25T14:37:26.146Z,4.70
2022-12-25T14:40:01.914Z,4.60
2022-12-25T14:42:31.360Z,4.70
2022-12-25T14:47:26.127Z,4.80
2022-12-25T14:49:54.665Z,4.70
2022-12-25T14:52:43.913Z,4.70
2022-12-25T14:55:22.672Z,4.70
2022-12-25T14:58:08.242Z,4.70
2022-12-25T15:00:39.368Z,4.70
2022-12-25T15:03:40.039Z,4.70
2022-12-25T15:06:21.802Z,4.70
2022-12-25T15:08:56.726Z,4.80
2022-12-25T15:11:23.508Z,4.80
2022-12-25T15:13:50.396Z,4.90
2022-12-25T15:16:22.652Z,4.80
2022-12-25T15:18:50.826Z,4.80
2022-12-25T15:21:25.826Z,4.90
2022-12-25T15:23:57.246Z,5.10
2022-12-25T15:26:25.537Z,5.20
2022-12-25T15:28:52.852Z,5.10
2022-12-25T15:31:28.898Z,5.20
2022-12-25T15:33:58.248Z,5.00
2022-12-25T15:36:26.139Z,5.10
2022-12-25T15:38:53.959Z,5.20
2022-12-25T15:41:44.752Z,5.20
2022-12-25T15:44:12.662Z,5.10
2022-12-25T15:46:39.826Z,5.10
2022-12-25T15:49:06.722Z,5.00
2022-12-25T15:51:34.049Z,5.00
2022-12-25T15:54:00.874Z,5.00
2022-12-25T15:56:29.410Z,5.10
2022-12-25T15:58:56.724Z,5.10
2022-12-25T16:01:23.596Z,5.00
2022-12-25T16:03:50.561Z,5.10
2022-12-25T16:06:18.522Z,5.00
2022-12-25T16:08:46.102Z,5.00
2022-12-25T16:11:12.911Z,5.00
2022-12-25T16:13:39.776Z,4.90
2022-12-25T16:16:07.045Z,4.90
2022-12-25T16:18:34.029Z,5.00
2022-12-25T16:21:00.869Z,4.90
2022-12-25T16:23:27.776Z,4.90
2022-12-25T16:25:54.595Z,5.00
2022-12-25T16:28:21.440Z,5.00
2022-12-25T16:30:48.463Z,5.00
2022-12-25T16:33:15.601Z,5.10
2022-12-25T16:35:42.572Z,5.10
2022-12-25T16:38:09.463Z,5.20
2022-12-25T16:40:36.275Z,5.10
2022-12-25T16:43:03.163Z,4.90
2022-12-25T16:45:30.071Z,5.00
2022-12-25T16:47:57.875Z,5.00
2022-12-25T16:50:24.837Z,5.00
2022-12-25T16:52:51.683Z,4.80
2022-12-25T16:55:18.788Z,4.80
2022-12-25T16:57:48.899Z,4.80
2022-12-25T17:00:16.144Z,4.80
2022-12-25T17:02:43.242Z,4.90
2022-12-25T17:05:10.358Z,4.90
2022-12-25T17:07:37.796Z,4.90
2022-12-25T17:10:06.508Z,4.90
2022-12-25T17:12:34.313Z,5.10
2022-12-25T17:15:01.104Z,4.70
2022-12-25T17:17:27.943Z,4.80
2022-12-25T17:19:54.771Z,4.80
2022-12-25T17:22:21.618Z,4.80
2022-12-25T17:24:48.440Z,4.70
2022-12-25T17:27:15.460Z,4.70
2022-12-25T17:29:43.973Z,4.80
2022-12-25T17:32:12.614Z,4.90
2022-12-25T17:34:39.533Z,4.90
2022-12-25T17:37:06.624Z,5.00
2022-12-25T17:39:33.463Z,5.10
2022-12-25T17:42:00.285Z,5.00
2022-12-25T17:44:27.413Z,4.80
2022-12-25T17:46:54.621Z,4.90
2022-12-25T17:49:22.188Z,5.00
2022-12-25T17:51:49.271Z,4.80
2022-12-25T17:54:16.276Z,4.80
2022-12-25T17:56:43.217Z,4.70
2022-12-25T17:59:18.505Z,4.60
2022-12-25T18:01:47.368Z,4.60
2022-12-25T18:04:14.342Z,4.70
2022-12-25T18:06:41.347Z,4.80
2022-12-25T18:09:09.847Z,4.80
2022-12-25T18:11:40.156Z,4.70
2022-12-25T18:14:08.941Z,4.70
2022-12-25T18:16:38.387Z,4.80
2022-12-25T18:19:05.645Z,4.80
2022-12-25T18:21:32.637Z,4.60
2022-12-25T18:23:59.583Z,4.60
2022-12-25T18:26:28.801Z,4.70
2022-12-25T18:28:57.492Z,4.30
2022-12-25T18:31:27.047Z,4.40
2022-12-25T18:33:54.152Z,4.50
2022-12-25T18:36:23.887Z,4.50
2022-12-25T18:38:52.417Z,4.40
2022-12-25T18:41:20.319Z,4.50
2022-12-25T18:43:52.683Z,4.50
2022-12-25T18:46:24.576Z,4.50
2022-12-25T18:48:52.200Z,4.40
2022-12-25T18:51:19.185Z,4.40
2022-12-25T18:53:46.235Z,4.00
2022-12-25T18:56:17.851Z,4.40
2022-12-25T18:58:46.330Z,4.40
2022-12-25T19:01:14.828Z,4.40
2022-12-25T19:03:42.449Z,4.30
2022-12-25T19:06:09.368Z,4.20
2022-12-25T19:08:36.207Z,4.20
2022-12-25T19:11:07.320Z,4.20
2022-12-25T19:13:34.224Z,4.30
2022-12-25T19:16:01.158Z,4.40
2022-12-25T19:18:28.338Z,4.40
2022-12-25T19:20:55.504Z,4.30
2022-12-25T19:23:22.328Z,4.30
2022-12-25T19:25:49.741Z,4.20
2022-12-25T19:28:17.871Z,4.20
2022-12-25T19:30:44.832Z,4.20
2022-12-25T19:33:17.556Z,4.20
2022-12-25T19:35:45.045Z,4.10
2022-12-25T19:38:11.948Z,4.20
2022-12-25T19:40:40.317Z,4.20
2022-12-25T19:43:07.159Z,4.20
2022-12-25T19:45:34.077Z,4.20
2022-12-25T19:48:00.993Z,4.20
2022-12-25T19:50:32.074Z,4.20
2022-12-25T19:52:58.877Z,4.10
2022-12-25T19:55:25.698Z,4.10
2022-12-25T19:57:52.989Z,4.10
2022-12-25T20:00:19.966Z,4.00
2022-12-25T20:02:47.159Z,4.10
2022-12-25T20:05:14.490Z,4.10
2022-12-25T20:07:41.303Z,4.10
2022-12-25T20:10:08.347Z,4.00
2022-12-25T20:12:35.225Z,4.00
2022-12-25T20:15:02.051Z,3.90
2022-12-25T20:17:28.915Z,4.10
2022-12-25T20:19:55.731Z,4.00
2022-12-25T20:22:22.557Z,3.90
2022-12-25T20:24:49.395Z,3.90
2022-12-25T20:27:16.669Z,4.00
2022-12-25T20:29:43.463Z,4.10
2022-12-25T20:32:10.305Z,4.00
2022-12-25T20:34:37.309Z,4.00
2022-12-25T20:37:04.271Z,4.00
2022-12-25T20:39:31.106Z,4.10
2022-12-25T20:41:58.202Z,3.90
2022-12-25T20:44:25.063Z,4.00
2022-12-25T20:46:51.869Z,4.00
2022-12-25T20:49:18.788Z,4.00
2022-12-25T20:51:45.597Z,3.90
2022-12-25T20:54:14.074Z,3.80
2022-12-25T20:56:41.130Z,3.80
2022-12-25T20:59:09.872Z,3.80
2022-12-25T21:01:37.123Z,3.80
2022-12-25T21:04:04.077Z,3.80
2022-12-25T21:06:31.000Z,3.70
2022-12-25T21:08:57.889Z,3.70
2022-12-25T21:11:25.307Z,3.70
2022-12-25T21:13:52.328Z,3.60
2022-12-25T21:16:22.326Z,3.50
2022-12-25T21:18:53.189Z,3.40
2022-12-25T21:21:20.654Z,3.30
2022-12-25T21:23:47.631Z,3.30
2022-12-25T21:26:23.148Z,3.40
2022-12-25T21:28:51.887Z,3.40
2022-12-25T21:31:19.523Z,3.40
2022-12-25T21:33:53.378Z,3.40
2022-12-25T21:36:22.217Z,3.40
2022-12-25T21:38:53.626Z,3.30
2022-12-25T21:41:20.793Z,3.30
2022-12-25T21:43:47.665Z,3.30
2022-12-25T21:46:16.077Z,3.30
2022-12-25T21:48:43.926Z,3.30
2022-12-25T21:51:36.797Z,3.20
2022-12-25T21:54:04.498Z,3.20
2022-12-25T21:56:37.068Z,3.30
2022-12-25T21:59:09.126Z,3.10
2022-12-25T22:01:37.700Z,3.10
2022-12-25T22:04:06.828Z,3.10
2022-12-25T22:06:52.881Z,3.10
2022-12-25T22:09:20.813Z,3.00
2022-12-25T22:12:06.764Z,3.00
2022-12-25T22:14:55.266Z,3.00
2022-12-25T22:18:01.528Z,3.00
2022-12-25T22:20:31.018Z,2.90
2022-12-25T22:22:58.224Z,2.80
2022-12-25T22:25:25.362Z,2.80
2022-12-25T22:27:53.186Z,2.80
2022-12-25T22:30:29.214Z,2.90
2022-12-25T22:32:56.499Z,2.80
2022-12-25T22:35:23.990Z,2.70
2022-12-25T22:37:51.053Z,2.70
2022-12-25T22:40:19.570Z,2.70
2022-12-25T22:42:46.828Z,2.70
2022-12-25T22:45:13.907Z,2.70
2022-12-25T22:47:41.368Z,2.70
2022-12-25T22:50:09.602Z,2.90
2022-12-25T22:52:37.468Z,2.90
2022-12-25T22:55:05.041Z,2.80
2022-12-25T22:57:31.848Z,2.90
2022-12-25T22:59:58.686Z,2.80
2022-12-25T23:02:25.926Z,4.40
2022-12-25T23:04:52.920Z,2.80
2022-12-25T23:07:19.818Z,2.80
2022-12-25T23:09:46.693Z,2.80
2022-12-25T23:12:33.793Z,2.80
2022-12-25T23:15:00.674Z,2.80
2022-12-25T23:17:46.255Z,2.70
2022-12-25T23:20:33.211Z,2.70
2022-12-25T23:23:18.947Z,2.70
2022-12-25T23:26:04.113Z,2.80
2022-12-25T23:28:49.667Z,2.80
2022-12-25T23:31:16.633Z,2.90
2022-12-25T23:33:43.537Z,2.90
2022-12-25T23:36:10.374Z,2.90
2022-12-25T23:38:37.229Z,2.80
2022-12-25T23:41:04.078Z,2.80
2022-12-25T23:43:31.001Z,2.80
2022-12-25T23:45:57.825Z,2.80
2022-12-25T23:48:24.652Z,2.90
2022-12-25T23:50:51.516Z,2.90
2022-12-25T23:53:18.384Z,2.80
2022-12-25T23:55:50.068Z,2.90
2022-12-25T23:58:20.498Z,2.80
